Time;durP1;ratioP1;P1;durP2;ratioP2;P2;SDS_P1;SDS_P2;PMS_P1;PMS_P2;Temp;Humidity;BMP_temperature;BMP_pressure;BME280_temperature;BME280_humidity;BME280_pressure;Samples;Min_cycle;Max_cycle;Signal;HPM_P1;HPM_P2
2021/06/17 00:00:57;;;;;;;8.10;7.40;;;23.50;32.30;;;;;;4977518;28;20189;-79
2021/06/17 00:03:23;;;;;;;8.37;7.80;;;23.50;32.30;;;;;;4977218;28;20244;-78
2021/06/17 00:05:48;;;;;;;7.43;6.93;;;23.50;32.30;;;;;;4976186;28;20185;-79
2021/06/17 00:08:14;;;;;;;8.40;7.73;;;23.50;32.30;;;;;;4976069;28;20183;-78
2021/06/17 00:10:44;;;;;;;8.07;7.47;;;23.50;32.30;;;;;;4977219;28;20673;-79
2021/06/17 00:13:13;;;;;;;7.80;7.30;;;23.50;32.30;;;;;;4976084;28;20602;-79
2021/06/17 00:15:41;;;;;;;7.50;6.90;;;23.40;32.20;;;;;;4975101;28;20402;-79
2021/06/17 00:18:09;;;;;;;7.50;7.00;;;23.40;32.20;;;;;;4976082;28;20506;-79
2021/06/17 00:20:35;;;;;;;6.87;6.40;;;23.50;32.30;;;;;;4975731;28;20483;-80
2021/06/17 00:23:00;;;;;;;8.00;7.40;;;23.50;32.40;;;;;;4975813;28;20454;-79
2021/06/17 00:25:26;;;;;;;6.97;6.57;;;23.50;32.40;;;;;;4975506;28;20465;-78
2021/06/17 00:27:52;;;;;;;7.17;6.77;;;23.50;32.40;;;;;;4974331;28;20182;-78
2021/06/17 00:30:19;;;;;;;7.50;6.90;;;23.40;32.50;;;;;;4975506;28;20436;-79
2021/06/17 00:32:44;;;;;;;7.07;6.60;;;23.40;32.50;;;;;;4975044;28;20175;-78
2021/06/17 00:35:11;;;;;;;7.60;7.10;;;23.40;32.50;;;;;;4974954;28;20457;-77
2021/06/17 00:37:37;;;;;;;7.87;7.27;;;23.40;32.50;;;;;;4974356;28;20178;-78
2021/06/17 00:40:06;;;;;;;7.50;6.80;;;23.40;32.60;;;;;;4973603;28;20429;-78
2021/06/17 00:42:32;;;;;;;7.93;7.33;;;23.40;32.60;;;;;;4973777;28;20430;-79
2021/06/17 00:44:58;;;;;;;8.13;7.47;;;23.40;32.70;;;;;;4974000;28;20473;-78
2021/06/17 00:47:24;;;;;;;6.30;6.00;;;23.40;32.70;;;;;;4973895;28;20414;-77
2021/06/17 00:49:49;;;;;;;7.57;6.90;;;23.40;32.60;;;;;;4973687;28;20630;-78
2021/06/17 00:52:15;;;;;;;7.50;7.00;;;23.40;32.80;;;;;;4974095;28;20170;-78
2021/06/17 00:54:41;;;;;;;7.03;6.57;;;23.40;32.80;;;;;;4973437;28;20276;-77
2021/06/17 00:57:08;;;;;;;7.70;7.10;;;23.40;32.80;;;;;;4972073;28;20266;-77
2021/06/17 00:59:37;;;;;;;7.70;7.20;;;23.40;33.60;;;;;;4973040;28;20187;-78
2021/06/17 01:02:03;;;;;;;7.70;7.20;;;23.40;32.80;;;;;;4973086;28;20428;-76
2021/06/17 01:04:30;;;;;;;7.70;7.10;;;23.40;32.80;;;;;;4972282;28;20465;-78
2021/06/17 01:06:57;;;;;;;6.60;6.10;;;23.40;32.80;;;;;;4972464;28;20504;-78
2021/06/17 01:09:37;;;;;;;7.30;6.80;;;23.40;32.90;;;;;;4972201;28;20414;-78
2021/06/17 01:12:17;;;;;;;6.70;6.30;;;23.40;32.80;;;;;;4972498;28;20414;-79
2021/06/17 01:15:03;;;;;;;6.97;6.67;;;23.40;32.80;;;;;;4975344;28;20473;-78
2021/06/17 01:17:33;;;;;;;7.50;7.00;;;23.40;32.90;;;;;;4976824;28;20432;-79
2021/06/17 01:20:12;;;;;;;7.07;6.67;;;23.40;32.80;;;;;;4975325;28;20549;-76
2021/06/17 01:22:53;;;;;;;6.80;6.40;;;23.40;32.80;;;;;;4975722;28;20477;-79
2021/06/17 01:25:43;;;;;;;7.30;6.63;;;23.40;32.90;;;;;;4976737;28;20503;-79
2021/06/17 01:28:13;;;;;;;7.63;7.23;;;23.40;32.80;;;;;;4976517;28;20406;-79
2021/06/17 01:31:06;;;;;;;7.00;6.60;;;23.40;32.80;;;;;;4975659;28;20406;-79
2021/06/17 01:33:38;;;;;;;7.07;6.67;;;23.40;32.80;;;;;;4976142;28;20474;-79
2021/06/17 01:36:09;;;;;;;7.67;7.27;;;23.40;32.90;;;;;;4977028;28;20416;-79
2021/06/17 01:38:36;;;;;;;6.30;5.90;;;23.40;32.80;;;;;;4975422;28;20501;-80
2021/06/17 01:41:04;;;;;;;7.13;6.57;;;23.40;32.80;;;;;;4975128;28;20426;-79
2021/06/17 01:43:30;;;;;;;6.63;6.30;;;23.30;32.70;;;;;;4976479;28;20469;-79
2021/06/17 01:45:58;;;;;;;7.13;6.53;;;23.30;32.80;;;;;;4976589;28;20421;-78
2021/06/17 01:48:26;;;;;;;7.03;6.63;;;23.30;32.80;;;;;;4976341;28;20753;-78
2021/06/17 01:50:54;;;;;;;6.70;6.30;;;23.30;32.70;;;;;;4980409;28;20410;-78
2021/06/17 01:53:22;;;;;;;7.37;6.70;;;23.30;32.70;;;;;;4978730;28;20586;-79
2021/06/17 01:55:50;;;;;;;6.63;6.23;;;23.30;32.70;;;;;;4978782;28;20426;-78
2021/06/17 01:58:18;;;;;;;6.77;6.37;;;23.30;32.70;;;;;;4980088;28;20413;-77
2021/06/17 02:00:46;;;;;;;7.53;7.03;;;23.30;32.70;;;;;;4980176;28;20418;-79
2021/06/17 02:03:14;;;;;;;6.40;6.10;;;23.30;32.80;;;;;;4979823;28;20465;-79
2021/06/17 02:05:41;;;;;;;7.30;6.87;;;23.30;32.70;;;;;;4978515;28;20445;-77
2021/06/17 02:08:08;;;;;;;7.33;6.83;;;23.30;32.80;;;;;;4978950;28;20425;-79
2021/06/17 02:10:36;;;;;;;6.83;6.43;;;23.30;32.70;;;;;;4979972;28;20417;-79
2021/06/17 02:13:04;;;;;;;6.70;6.30;;;23.30;32.70;;;;;;4979158;28;20960;-79
2021/06/17 02:15:31;;;;;;;6.47;6.07;;;23.30;32.70;;;;;;4978387;28;20414;-79
2021/06/17 02:17:58;;;;;;;6.43;6.03;;;23.30;32.70;;;;;;4979095;28;20417;-78
2021/06/17 02:20:23;;;;;;;7.03;6.53;;;23.30;32.70;;;;;;4977990;28;20915;-78
2021/06/17 02:22:53;;;;;;;6.97;6.57;;;23.30;32.70;;;;;;4978327;28;20473;-78
2021/06/17 02:25:21;;;;;;;6.77;6.30;;;23.30;32.70;;;;;;4978110;28;20259;-79
2021/06/17 02:27:53;;;;;;;6.77;6.37;;;23.30;32.70;;;;;;4977987;28;20418;-79
2021/06/17 02:30:20;;;;;;;6.77;6.37;;;23.30;32.70;;;;;;4979746;28;20410;-79
2021/06/17 02:32:49;;;;;;;6.77;6.27;;;23.30;32.70;;;;;;4979150;28;20484;-78
2021/06/17 02:35:22;;;;;;;7.53;7.00;;;23.30;32.80;;;;;;4979071;28;20433;-79
2021/06/17 02:37:56;;;;;;;7.30;6.80;;;23.30;32.80;;;;;;4979605;28;20418;-79
2021/06/17 02:40:24;;;;;;;6.83;6.40;;;23.30;32.70;;;;;;4979760;28;20418;-78
2021/06/17 02:42:52;;;;;;;6.10;5.80;;;23.30;32.80;;;;;;4979779;28;20497;-79
2021/06/17 02:45:18;;;;;;;6.93;6.53;;;23.30;32.80;;;;;;4978054;28;20422;-79
2021/06/17 02:47:43;;;;;;;7.20;6.60;;;23.30;32.80;;;;;;4979558;28;20417;-79
2021/06/17 02:50:10;;;;;;;6.83;6.43;;;23.30;32.80;;;;;;4979465;28;20417;-79
2021/06/17 02:52:40;;;;;;;6.67;6.27;;;23.30;32.70;;;;;;4979113;28;20171;-79
2021/06/17 02:55:06;;;;;;;6.70;6.30;;;23.30;32.70;;;;;;4978481;28;20509;-79
2021/06/17 02:57:44;;;;;;;6.77;6.27;;;23.30;32.80;;;;;;4977524;28;20917;-80
2021/06/17 03:00:14;;;;;;;6.30;5.90;;;23.30;32.70;;;;;;4976720;28;20601;-80
2021/06/17 03:03:12;;;;;;;7.10;6.70;;;23.30;32.70;;;;;;4976905;28;20952;-79
2021/06/17 03:05:51;;;;;;;6.87;6.43;;;23.30;32.80;;;;;;4978849;28;20426;-78
2021/06/17 03:08:21;;;;;;;7.10;6.70;;;23.30;32.80;;;;;;4979039;28;20888;-79
2021/06/17 03:10:50;;;;;;;7.23;6.83;;;23.30;32.70;;;;;;4978889;28;20417;-78
2021/06/17 03:13:21;;;;;;;7.20;6.63;;;23.20;32.70;;;;;;4977646;28;20434;-78
2021/06/17 03:15:49;;;;;;;7.03;6.63;;;23.30;32.70;;;;;;4977557;28;20406;-78
2021/06/17 03:18:16;;;;;;;7.17;6.70;;;23.30;32.70;;;;;;4975702;28;20504;-80
2021/06/17 03:20:43;;;;;;;7.20;6.70;;;23.30;32.70;;;;;;4977169;28;20422;-78
2021/06/17 03:23:14;;;;;;;6.27;5.97;;;23.30;32.70;;;;;;4976660;28;20460;-78
2021/06/17 03:25:42;;;;;;;6.57;6.17;;;23.30;32.70;;;;;;4975594;28;20450;-78
2021/06/17 03:28:12;;;;;;;7.03;6.53;;;23.30;32.70;;;;;;4975666;28;20830;-79
2021/06/17 03:30:43;;;;;;;6.43;6.13;;;23.30;32.70;;;;;;4975241;28;20846;-76
2021/06/17 03:33:09;;;;;;;6.17;5.77;;;23.30;32.60;;;;;;4975819;28;20501;-79
2021/06/17 03:35:35;;;;;;;6.90;6.40;;;23.20;32.50;;;;;;4975571;28;20420;-78
2021/06/17 03:38:03;;;;;;;6.60;6.20;;;23.30;32.60;;;;;;4978191;28;20513;-78
2021/06/17 03:40:29;;;;;;;7.43;6.90;;;23.20;32.60;;;;;;4978279;28;20993;-79
2021/06/17 03:42:56;;;;;;;6.87;6.50;;;23.20;32.50;;;;;;4976929;28;20481;-79
2021/06/17 03:45:24;;;;;;;5.97;5.67;;;23.20;32.70;;;;;;4978028;28;20505;-79
2021/06/17 03:47:51;;;;;;;6.17;5.87;;;23.20;32.60;;;;;;4977568;28;20410;-79
2021/06/17 03:50:18;;;;;;;6.50;6.20;;;23.20;32.50;;;;;;4977830;28;20495;-79
2021/06/17 03:52:48;;;;;;;6.80;6.40;;;23.20;32.50;;;;;;4977896;28;20500;-79
2021/06/17 03:55:17;;;;;;;6.63;6.20;;;23.20;32.60;;;;;;4977628;28;20500;-79
2021/06/17 03:57:46;;;;;;;7.07;6.67;;;23.20;32.60;;;;;;4977728;28;20756;-79
2021/06/17 04:00:13;;;;;;;6.40;6.10;;;23.20;32.70;;;;;;4975841;28;20418;-79
2021/06/17 04:02:39;;;;;;;7.17;6.77;;;23.20;32.70;;;;;;4977166;28;20409;-78
2021/06/17 04:05:06;;;;;;;6.53;6.13;;;23.20;32.80;;;;;;4977130;28;20520;-79
2021/06/17 04:07:34;;;;;;;6.50;6.07;;;23.20;32.70;;;;;;4977296;28;20417;-77
2021/06/17 04:10:01;;;;;;;6.60;6.20;;;23.20;32.70;;;;;;4973862;28;20446;-78
2021/06/17 04:12:29;;;;;;;5.93;5.53;;;23.20;32.70;;;;;;4973162;28;20792;-78
2021/06/17 04:14:58;;;;;;;6.80;6.40;;;23.20;32.70;;;;;;4973222;28;20968;-76
2021/06/17 04:17:28;;;;;;;7.10;6.70;;;23.20;32.70;;;;;;4974049;28;20425;-77
2021/06/17 04:19:55;;;;;;;6.10;5.80;;;23.20;32.70;;;;;;4973229;28;20433;-77
2021/06/17 04:22:23;;;;;;;7.30;6.90;;;23.20;33.40;;;;;;4972745;28;20922;-77
2021/06/17 04:24:55;;;;;;;6.67;6.27;;;23.20;32.70;;;;;;4972220;28;20466;-78
2021/06/17 04:27:22;;;;;;;7.70;7.30;;;23.20;32.70;;;;;;4973122;28;20502;-77
2021/06/17 04:29:54;;;;;;;6.87;6.37;;;23.20;32.70;;;;;;4972920;28;20825;-78
2021/06/17 04:32:20;;;;;;;7.40;6.80;;;23.20;32.70;;;;;;4973085;28;20790;-77
2021/06/17 04:34:46;;;;;;;7.20;6.80;;;23.30;32.80;;;;;;4973191;28;20484;-78
2021/06/17 04:37:17;;;;;;;8.40;6.93;;;23.20;32.70;;;;;;4973099;28;20468;-76
2021/06/17 04:39:43;;;;;;;7.03;6.53;;;23.30;32.80;;;;;;4973106;28;20438;-78
2021/06/17 04:42:10;;;;;;;6.50;6.10;;;23.20;32.70;;;;;;4978625;28;20410;-77
2021/06/17 04:44:41;;;;;;;6.73;6.30;;;23.20;32.70;;;;;;4976635;28;20898;-79
2021/06/17 04:47:07;;;;;;;7.23;6.63;;;23.20;32.70;;;;;;4977543;28;20406;-79
2021/06/17 04:49:34;;;;;;;6.60;6.13;;;23.20;32.70;;;;;;4983122;28;20417;-79
2021/06/17 04:52:03;;;;;;;7.50;6.90;;;23.20;32.70;;;;;;4978987;28;20416;-79
2021/06/17 04:54:28;;;;;;;6.50;6.00;;;23.20;32.70;;;;;;4983414;28;20460;-78
2021/06/17 04:56:55;;;;;;;7.10;6.50;;;23.20;32.70;;;;;;4997291;28;20480;-79
2021/06/17 04:59:20;;;;;;;6.30;5.90;;;23.20;32.70;;;;;;4998842;28;20170;-79
2021/06/17 05:01:46;;;;;;;7.30;6.80;;;23.20;32.70;;;;;;4998862;28;20412;-79
2021/06/17 05:04:11;;;;;;;7.50;6.90;;;23.20;32.70;;;;;;4998327;28;20217;-79
2021/06/17 05:06:40;;;;;;;6.70;6.20;;;23.20;32.70;;;;;;4999209;28;20170;-79
2021/06/17 05:11:51;;;;;;;6.53;6.13;;;23.20;32.70;;;;;;4998582;28;20497;-77
2021/06/17 05:14:19;;;;;;;6.40;6.00;;;23.20;32.70;;;;;;4996240;28;21125;-76
2021/06/17 05:16:50;;;;;;;6.93;6.53;;;23.20;32.70;;;;;;4999151;28;20480;-77
2021/06/17 05:19:16;;;;;;;6.70;6.30;;;23.20;32.70;;;;;;4997644;28;20461;-79
2021/06/17 05:21:42;;;;;;;7.63;7.03;;;23.20;32.70;;;;;;4996998;28;20564;-79
2021/06/17 05:24:09;;;;;;;6.90;6.30;;;23.20;32.70;;;;;;4999239;28;20232;-78
2021/06/17 05:26:35;;;;;;;6.63;6.23;;;23.10;32.60;;;;;;4999416;28;20457;-79
2021/06/17 05:29:01;;;;;;;6.10;5.70;;;23.10;32.60;;;;;;5000000;28;20792;-76
2021/06/17 05:31:27;;;;;;;7.03;5.93;;;23.20;32.70;;;;;;4998975;28;20409;-78
2021/06/17 05:33:52;;;;;;;6.30;5.90;;;23.20;32.70;;;;;;4999544;28;20437;-78
2021/06/17 05:36:18;;;;;;;6.30;5.90;;;23.20;32.70;;;;;;4998588;28;20196;-79
2021/06/17 05:38:44;;;;;;;9.13;6.97;;;23.20;32.70;;;;;;4998136;28;20188;-77
2021/06/17 05:41:10;;;;;;;8.17;7.03;;;23.20;32.70;;;;;;4999545;28;20177;-78
2021/06/17 05:43:39;;;;;;;8.17;7.47;;;23.20;32.70;;;;;;4999329;28;20209;-77
2021/06/17 05:46:05;;;;;;;8.60;7.57;;;23.20;32.70;;;;;;5000830;28;20857;-79
2021/06/17 05:48:32;;;;;;;8.23;7.50;;;23.20;33.10;;;;;;5000811;28;20421;-78
2021/06/17 05:50:58;;;;;;;8.50;7.70;;;23.20;33.20;;;;;;5000409;28;20208;-78
2021/06/17 05:53:26;;;;;;;9.23;8.37;;;23.20;33.00;;;;;;4998958;28;20452;-79
2021/06/17 05:56:04;;;;;;;9.80;8.20;;;23.30;33.20;;;;;;4998140;28;20405;-79
2021/06/17 05:58:30;;;;;;;8.17;7.47;;;23.20;32.70;;;;;;4982246;28;20509;-78
2021/06/17 06:00:56;;;;;;;8.43;7.63;;;23.30;32.70;;;;;;5001360;28;20669;-78
2021/06/17 06:03:22;;;;;;;7.77;7.27;;;23.30;32.70;;;;;;5001879;28;20826;-78
2021/06/17 06:05:47;;;;;;;7.60;6.93;;;23.30;32.80;;;;;;5002228;28;20177;-79
2021/06/17 06:08:14;;;;;;;7.60;6.97;;;23.30;32.70;;;;;;5002874;28;20185;-78
2021/06/17 06:10:40;;;;;;;7.93;6.53;;;23.30;32.70;;;;;;5002368;28;20245;-79
2021/06/17 06:13:06;;;;;;;9.03;6.87;;;23.30;32.30;;;;;;5004486;28;20439;-79
2021/06/17 06:15:34;;;;;;;9.40;6.37;;;23.30;31.90;;;;;;5004780;28;20505;-80
2021/06/17 06:18:37;;;;;;;6.40;6.00;;;23.30;31.60;;;;;;5003225;28;20769;-79
2021/06/17 06:21:04;;;;;;;6.27;5.87;;;23.30;31.80;;;;;;5002711;28;20436;-78
2021/06/17 06:23:30;;;;;;;6.73;6.23;;;23.30;31.00;;;;;;4985800;28;20523;-79
2021/06/17 06:26:06;;;;;;;6.17;5.77;;;23.40;31.20;;;;;;4999931;28;20429;-80
2021/06/17 06:29:03;;;;;;;6.33;5.93;;;23.40;31.00;;;;;;4997621;28;20421;-78
2021/06/17 06:32:21;;;;;;;6.57;6.07;;;23.40;31.20;;;;;;4997779;28;20920;-80
2021/06/17 06:35:44;;;;;;;6.30;5.77;;;23.50;31.20;;;;;;4983485;28;20442;-80
2021/06/17 06:42:09;;;;;;;6.00;5.60;;;23.50;31.20;;;;;;4943979;28;20597;-80
2021/06/17 06:45:12;;;;;;;6.97;6.37;;;23.50;31.20;;;;;;4983096;28;20469;-79
2021/06/17 06:47:39;;;;;;;6.50;6.00;;;23.50;31.10;;;;;;4982451;28;20491;-78
2021/06/17 06:50:06;;;;;;;7.53;6.83;;;23.50;31.20;;;;;;4963615;28;20418;-77
2021/06/17 06:52:33;;;;;;;7.20;6.50;;;23.50;31.20;;;;;;4976531;28;20426;-78
2021/06/17 06:55:21;;;;;;;8.03;7.27;;;23.50;31.20;;;;;;4976795;28;20454;-79
2021/06/17 06:57:48;;;;;;;8.53;6.90;;;23.50;31.20;;;;;;4976480;28;20426;-78
2021/06/17 07:00:17;;;;;;;6.77;6.17;;;23.50;31.10;;;;;;4976030;28;20951;-79
2021/06/17 07:02:43;;;;;;;6.90;6.40;;;23.50;30.80;;;;;;4975728;28;20440;-76
2021/06/17 07:05:10;;;;;;;6.73;6.20;;;23.50;30.50;;;;;;4975689;28;20481;-75
2021/06/17 07:07:36;;;;;;;9.90;5.90;;;23.50;30.40;;;;;;4973593;28;20418;-77
2021/06/17 07:10:03;;;;;;;7.10;6.57;;;23.60;30.50;;;;;;4974904;28;20502;-77
2021/06/17 07:12:33;;;;;;;7.47;6.63;;;23.60;30.40;;;;;;4974766;28;20201;-78
2021/06/17 07:15:02;;;;;;;6.43;5.83;;;23.60;30.60;;;;;;4975461;28;20457;-78
2021/06/17 07:17:48;;;;;;;6.27;5.77;;;23.60;30.80;;;;;;4976252;28;20422;-77
2021/06/17 07:20:13;;;;;;;6.87;6.27;;;23.60;31.00;;;;;;4975578;28;20429;-76
2021/06/17 07:22:39;;;;;;;7.43;6.20;;;23.60;30.80;;;;;;4975710;28;20681;-78
2021/06/17 07:25:05;;;;;;;7.63;6.97;;;23.60;30.90;;;;;;4975544;28;20326;-77
2021/06/17 07:27:31;;;;;;;6.53;5.93;;;23.60;30.90;;;;;;4973882;28;20170;-77
2021/06/17 07:29:57;;;;;;;6.63;6.10;;;23.60;31.10;;;;;;4973017;28;21063;-78
2021/06/17 07:32:23;;;;;;;6.43;5.93;;;23.60;30.70;;;;;;4974601;28;20410;-76
2021/06/17 07:34:48;;;;;;;6.60;6.20;;;23.60;30.60;;;;;;4974640;28;20721;-77
2021/06/17 07:37:15;;;;;;;7.20;6.30;;;23.60;30.30;;;;;;4975156;28;20363;-77
2021/06/17 07:39:41;;;;;;;7.33;6.50;;;23.60;30.70;;;;;;4974235;28;20183;-77
2021/06/17 07:42:10;;;;;;;6.60;6.10;;;23.60;30.50;;;;;;4973513;28;20476;-77
2021/06/17 07:44:36;;;;;;;6.10;5.80;;;23.60;30.80;;;;;;4972912;28;20497;-77
2021/06/17 07:47:02;;;;;;;6.33;6.00;;;23.60;30.80;;;;;;4973922;28;20410;-77
2021/06/17 07:49:27;;;;;;;6.57;6.17;;;23.60;30.50;;;;;;4974042;28;20181;-77
2021/06/17 07:51:55;;;;;;;6.87;6.07;;;23.60;30.40;;;;;;4972789;28;20187;-76
2021/06/17 07:54:21;;;;;;;5.30;5.00;;;23.60;30.50;;;;;;4973173;28;20268;-76
2021/06/17 07:56:48;;;;;;;5.60;5.17;;;23.60;30.40;;;;;;4973981;28;20418;-78
2021/06/17 07:59:18;;;;;;;7.73;6.50;;;23.60;30.40;;;;;;4977448;28;20197;-78
2021/06/17 08:01:43;;;;;;;6.37;5.90;;;23.60;30.60;;;;;;4979049;28;20417;-77
2021/06/17 08:04:09;;;;;;;6.30;5.70;;;23.60;30.60;;;;;;4978188;28;20512;-77
2021/06/17 08:06:36;;;;;;;8.33;6.07;;;23.60;30.40;;;;;;4977312;28;20333;-78
2021/06/17 08:09:03;;;;;;;5.90;5.50;;;23.60;30.10;;;;;;4977222;28;20414;-77
2021/06/17 08:11:34;;;;;;;6.53;6.03;;;23.60;30.40;;;;;;4977739;28;20428;-81
2021/06/17 08:14:00;;;;;;;6.83;6.23;;;23.70;30.40;;;;;;4978374;28;20565;-80
2021/06/17 08:16:26;;;;;;;7.10;6.70;;;23.70;30.50;;;;;;4962139;28;20445;-78
2021/06/17 08:18:54;;;;;;;6.57;6.07;;;23.70;30.60;;;;;;4979120;28;20418;-79
2021/06/17 08:21:23;;;;;;;6.60;6.10;;;23.60;30.50;;;;;;4978648;28;20556;-79
2021/06/17 08:23:49;;;;;;;6.27;5.87;;;23.60;30.90;;;;;;4978415;28;20458;-79
2021/06/17 08:26:14;;;;;;;6.77;6.40;;;23.60;30.80;;;;;;4977229;28;20437;-79
2021/06/17 08:28:40;;;;;;;7.50;6.90;;;23.70;30.90;;;;;;4978748;28;20403;-79
2021/06/17 08:31:06;;;;;;;6.43;6.00;;;23.70;31.20;;;;;;4976622;28;20189;-77
2021/06/17 08:33:36;;;;;;;7.70;7.00;;;23.70;31.10;;;;;;4974012;28;20202;-77
2021/06/17 08:36:04;;;;;;;7.00;6.40;;;23.70;31.50;;;;;;4974490;28;20422;-78
2021/06/17 08:38:31;;;;;;;7.70;7.20;;;23.60;31.50;;;;;;4975154;28;20414;-79
2021/06/17 08:40:58;;;;;;;6.70;6.20;;;23.70;32.00;;;;;;4958093;28;20461;-78
2021/06/17 08:43:24;;;;;;;8.07;7.47;;;23.70;31.90;;;;;;4972600;28;20457;-77
2021/06/17 08:45:50;;;;;;;7.07;6.27;;;23.70;31.90;;;;;;4973842;28;20512;-77
2021/06/17 08:48:15;;;;;;;7.07;6.40;;;23.70;32.20;;;;;;4972487;28;20433;-78
2021/06/17 08:50:41;;;;;;;7.60;7.00;;;23.70;32.10;;;;;;4976417;28;20418;-78
2021/06/17 08:53:07;;;;;;;8.83;7.30;;;23.70;32.20;;;;;;4975234;28;20533;-79
2021/06/17 08:55:34;;;;;;;8.53;7.27;;;23.70;32.50;;;;;;4975609;28;20797;-80
2021/06/17 08:58:00;;;;;;;7.40;6.60;;;23.80;32.70;;;;;;4973921;28;20552;-80
2021/06/17 09:00:31;;;;;;;8.10;7.40;;;23.80;32.50;;;;;;4974845;28;20414;-78
2021/06/17 09:03:09;;;;;;;7.50;6.97;;;23.80;32.70;;;;;;4974991;28;20561;-79
2021/06/17 09:05:42;;;;;;;7.63;7.13;;;23.80;32.80;;;;;;4974750;28;20410;-79
2021/06/17 09:08:31;;;;;;;7.53;6.93;;;23.80;32.70;;;;;;4973979;28;20402;-79
2021/06/17 09:10:59;;;;;;;7.40;6.90;;;23.80;32.70;;;;;;4973070;28;20913;-78
2021/06/17 09:13:37;;;;;;;8.50;7.83;;;23.80;32.90;;;;;;4973515;28;20472;-79
2021/06/17 09:16:04;;;;;;;7.70;7.20;;;23.80;32.70;;;;;;4975422;28;20410;-80
2021/06/17 09:18:35;;;;;;;7.53;7.03;;;23.80;33.10;;;;;;4975311;28;20410;-78
2021/06/17 09:21:10;;;;;;;8.10;7.60;;;23.80;33.00;;;;;;4973677;28;20434;-78
2021/06/17 09:23:49;;;;;;;7.93;7.43;;;23.80;32.80;;;;;;4975490;28;20984;-79
2021/06/17 09:27:13;;;;;;;7.67;7.17;;;23.90;32.80;;;;;;4975415;28;20752;-80
2021/06/17 09:29:39;;;;;;;7.40;6.93;;;23.90;32.70;;;;;;4975052;28;20760;-78
2021/06/17 09:32:20;;;;;;;7.20;6.70;;;23.90;32.50;;;;;;4976500;28;20410;-78
2021/06/17 09:34:46;;;;;;;7.97;7.20;;;23.90;32.40;;;;;;4972218;28;20194;-78
2021/06/17 09:37:34;;;;;;;8.57;7.77;;;23.90;32.40;;;;;;4974591;28;20417;-77
2021/06/17 09:40:21;;;;;;;7.63;7.00;;;23.90;32.40;;;;;;4974582;28;20867;-78
2021/06/17 09:42:46;;;;;;;7.50;7.00;;;23.90;32.40;;;;;;4973791;28;20410;-77
2021/06/17 09:45:21;;;;;;;7.90;7.40;;;23.90;32.70;;;;;;4973222;28;20470;-78
2021/06/17 09:47:47;;;;;;;7.87;7.37;;;23.90;32.80;;;;;;4976070;28;20645;-75
2021/06/17 09:50:27;;;;;;;8.73;8.10;;;23.90;32.80;;;;;;4973545;28;20410;-76
2021/06/17 09:52:55;;;;;;;8.13;7.63;;;23.90;32.80;;;;;;4985040;28;20408;-78
2021/06/17 09:55:40;;;;;;;8.13;7.47;;;23.90;33.30;;;;;;4993818;28;20433;-78
2021/06/17 09:58:11;;;;;;;8.07;7.40;;;24.00;33.20;;;;;;4978196;28;20825;-77
2021/06/17 10:00:54;;;;;;;7.00;6.53;;;24.00;32.80;;;;;;4975135;28;20769;-78
2021/06/17 10:03:20;;;;;;;8.27;7.77;;;24.00;32.80;;;;;;4977683;28;20449;-79
2021/06/17 10:05:45;;;;;;;8.13;7.50;;;24.00;32.80;;;;;;4976973;28;20434;-80
2021/06/17 10:08:12;;;;;;;7.60;7.10;;;23.90;32.80;;;;;;4977441;28;20178;-77
2021/06/17 10:10:37;;;;;;;7.70;7.07;;;23.90;32.70;;;;;;4980111;28;20171;-77
2021/06/17 10:13:04;;;;;;;7.63;7.23;;;24.00;32.20;;;;;;4978656;28;20414;-79
2021/06/17 10:15:31;;;;;;;7.27;6.70;;;24.00;31.80;;;;;;4980704;28;20272;-79
2021/06/17 10:17:57;;;;;;;8.10;7.50;;;24.10;31.90;;;;;;4978416;28;20422;-80
2021/06/17 10:20:23;;;;;;;7.47;6.97;;;24.10;32.10;;;;;;4978210;28;20509;-78
2021/06/17 10:22:54;;;;;;;7.80;7.10;;;24.10;32.10;;;;;;4979673;28;21121;-79
2021/06/17 10:25:29;;;;;;;7.30;6.60;;;24.10;32.10;;;;;;4978951;28;20215;-77
2021/06/17 10:27:57;;;;;;;8.37;7.87;;;24.20;31.90;;;;;;4984929;28;20425;-77
2021/06/17 10:30:45;;;;;;;8.73;8.17;;;24.20;31.80;;;;;;4983855;28;20460;-78
2021/06/17 10:36:37;;;;;;;19.03;17.23;;;24.10;32.10;;;;;;4979097;28;20472;-78
2021/06/17 10:39:12;;;;;;;29.83;23.10;;;24.10;32.50;;;;;;4977274;28;20425;-78
2021/06/17 10:41:48;;;;;;;21.10;18.90;;;24.10;32.90;;;;;;4976124;28;20444;-77
2021/06/17 10:44:33;;;;;;;16.33;14.63;;;24.10;32.80;;;;;;4975605;28;20496;-77
2021/06/17 10:46:59;;;;;;;16.13;14.50;;;24.20;32.50;;;;;;4975536;28;20418;-78
2021/06/17 10:49:50;;;;;;;14.90;13.50;;;24.20;32.50;;;;;;4975216;28;20429;-78
2021/06/17 10:52:29;;;;;;;14.00;12.70;;;24.20;32.50;;;;;;4975888;28;20433;-79
2021/06/17 10:55:07;;;;;;;11.50;10.50;;;24.20;32.80;;;;;;4977100;28;20894;-80
2021/06/17 10:57:54;;;;;;;12.13;9.87;;;24.20;32.90;;;;;;4979340;28;20432;-79
2021/06/17 11:00:27;;;;;;;11.60;9.90;;;24.20;32.70;;;;;;4977646;28;20441;-77
2021/06/17 11:03:00;;;;;;;10.50;9.50;;;24.20;32.70;;;;;;4977940;28;20497;-76
2021/06/17 11:05:28;;;;;;;12.33;11.30;;;24.20;32.50;;;;;;4977650;28;20520;-77
2021/06/17 11:08:13;;;;;;;11.10;10.00;;;24.20;32.30;;;;;;4975762;28;20449;-78
2021/06/17 11:11:17;;;;;;;11.73;9.50;;;24.30;32.40;;;;;;4974330;28;20433;-78
2021/06/17 11:13:49;;;;;;;9.67;8.97;;;24.30;32.30;;;;;;4974883;28;20644;-77
2021/06/17 11:16:17;;;;;;;9.87;9.10;;;24.30;32.00;;;;;;4975316;28;20422;-77
2021/06/17 11:18:44;;;;;;;11.43;10.30;;;24.30;32.20;;;;;;4974840;28;20556;-77
2021/06/17 11:21:22;;;;;;;10.27;9.50;;;24.30;32.20;;;;;;4973538;28;20776;-77
2021/06/17 11:24:00;;;;;;;9.80;8.93;;;24.30;31.90;;;;;;4974152;28;20497;-78
2021/06/17 11:26:41;;;;;;;9.80;9.00;;;24.30;31.70;;;;;;4973183;28;20479;-78
2021/06/17 11:29:20;;;;;;;10.30;8.90;;;24.30;31.90;;;;;;4973862;28;20506;-78
2021/06/17 11:31:55;;;;;;;9.80;9.10;;;24.30;31.80;;;;;;4980082;28;20425;-78
2021/06/17 11:34:33;;;;;;;9.80;9.13;;;24.30;32.00;;;;;;4978346;28;20442;-79
2021/06/17 11:37:06;;;;;;;10.03;9.23;;;24.30;32.10;;;;;;4980444;28;20410;-78
2021/06/17 11:39:34;;;;;;;10.33;9.20;;;24.30;32.20;;;;;;4982157;28;20418;-79
2021/06/17 11:42:02;;;;;;;9.97;9.27;;;24.30;32.30;;;;;;4984383;28;20410;-78
2021/06/17 11:44:28;;;;;;;9.37;8.63;;;24.30;32.20;;;;;;4985222;28;20515;-79
2021/06/17 11:47:05;;;;;;;10.20;9.13;;;24.30;32.20;;;;;;4984176;28;20429;-79
2021/06/17 11:49:33;;;;;;;9.30;8.60;;;24.30;32.20;;;;;;4982777;28;20525;-78
2021/06/17 11:52:06;;;;;;;9.40;8.50;;;24.40;32.10;;;;;;4977215;28;20421;-78
2021/06/17 11:54:36;;;;;;;9.50;8.80;;;24.30;32.20;;;;;;4980136;28;20539;-78
2021/06/17 11:57:28;;;;;;;10.30;9.40;;;24.30;32.10;;;;;;4967887;28;20441;-80
2021/06/17 12:00:36;;;;;;;9.80;9.03;;;24.30;32.10;;;;;;4988159;28;20438;-77
2021/06/17 12:10:57;;;;;;;10.27;9.50;;;24.40;32.70;;;;;;4932779;29;20814;-78
2021/06/17 12:14:19;;;;;;;10.20;9.40;;;24.40;32.70;;;;;;4905436;29;20457;-79
2021/06/17 12:25:14;;;;;;;9.27;8.67;;;24.40;32.40;;;;;;4898041;29;20496;-80
2021/06/17 12:36:43;;;;;;;10.53;9.73;;;24.50;32.20;;;;;;4888439;29;20552;-79
2021/06/17 12:40:26;;;;;;;9.00;8.40;;;24.40;32.30;;;;;;4832152;29;20422;-79
2021/06/17 12:47:25;;;;;;;10.73;9.83;;;24.40;32.50;;;;;;4726057;30;20821;-77
2021/06/17 13:00:48;;;;;;;9.30;8.70;;;24.50;32.40;;;;;;4727882;30;20442;-79
2021/06/17 13:04:30;;;;;;;9.73;9.03;;;24.50;32.10;;;;;;4743078;30;20502;-79
2021/06/17 13:08:04;;;;;;;11.27;10.13;;;24.50;32.00;;;;;;4725474;30;20454;-79
2021/06/17 13:14:11;;;;;;;8.90;8.40;;;24.50;32.00;;;;;;4829902;29;20444;-75
2021/06/17 13:16:37;;;;;;;9.20;8.60;;;24.50;31.60;;;;;;4864491;29;20512;-78
2021/06/17 13:19:10;;;;;;;9.60;9.10;;;24.50;31.40;;;;;;4881163;29;20193;-77
2021/06/17 13:21:37;;;;;;;9.77;9.03;;;24.50;31.60;;;;;;4956441;28;20186;-76
2021/06/17 13:24:18;;;;;;;9.17;8.57;;;24.50;31.90;;;;;;4957571;28;20474;-78
2021/06/17 13:26:43;;;;;;;9.43;8.70;;;24.50;32.00;;;;;;4959239;29;20423;-78
2021/06/17 13:29:14;;;;;;;9.43;8.73;;;24.50;32.00;;;;;;4956551;29;21290;-78
2021/06/17 13:31:40;;;;;;;9.73;8.97;;;24.50;31.60;;;;;;5002428;28;20183;-77
2021/06/17 13:34:08;;;;;;;10.13;9.30;;;24.50;31.30;;;;;;4981241;28;20442;-77
2021/06/17 13:36:34;;;;;;;9.87;9.17;;;24.50;31.00;;;;;;4978010;28;20489;-78
2021/06/17 13:39:00;;;;;;;9.00;8.50;;;24.60;30.80;;;;;;4986794;28;20437;-77
2021/06/17 13:41:27;;;;;;;9.27;8.67;;;24.60;30.70;;;;;;4999120;28;20173;-79
2021/06/17 13:43:57;;;;;;;9.93;9.33;;;24.60;31.10;;;;;;4996382;28;20507;-77
2021/06/17 13:46:24;;;;;;;8.70;8.20;;;24.60;31.10;;;;;;4985900;28;20798;-78
2021/06/17 13:48:53;;;;;;;9.90;9.10;;;24.50;31.00;;;;;;4966927;28;20429;-78
2021/06/17 13:51:19;;;;;;;9.47;8.70;;;24.60;31.00;;;;;;4982681;28;20414;-79
2021/06/17 13:53:46;;;;;;;9.30;8.33;;;24.50;31.00;;;;;;4984165;28;20426;-81
2021/06/17 13:56:12;;;;;;;10.03;9.33;;;24.60;30.80;;;;;;4979114;28;20235;-79
2021/06/17 13:58:37;;;;;;;9.00;8.40;;;24.50;30.80;;;;;;4977192;28;20832;-77
2021/06/17 14:01:05;;;;;;;9.60;8.80;;;24.60;30.60;;;;;;4977978;28;20319;-76